sensor_id;sensor_type;location;lat;lon;timestamp;P1;durP1;ratioP1;P2;durP2;ratioP2
75246;SDS011;63844;50.042;19.224;2023-09-12T00:01:04;15.00;;;11.50;;
75246;SDS011;63844;50.042;19.224;2023-09-12T00:02:41;16.10;;;10.80;;
75246;SDS011;63844;50.042;19.224;2023-09-12T00:04:32;12.70;;;9.80;;
75246;SDS011;63844;50.042;19.224;2023-09-12T00:06:08;13.50;;;10.00;;
75246;SDS011;63844;50.042;19.224;2023-09-12T00:07:44;16.50;;;10.90;;
75246;SDS011;63844;50.042;19.224;2023-09-12T00:09:23;14.50;;;11.40;;
75246;SDS011;63844;50.042;19.224;2023-09-12T00:12:46;14.70;;;10.70;;
75246;SDS011;63844;50.042;19.224;2023-09-12T00:14:21;16.00;;;11.00;;
75246;SDS011;63844;50.042;19.224;2023-09-12T00:15:57;15.30;;;10.80;;
75246;SDS011;63844;50.042;19.224;2023-09-12T00:17:42;13.30;;;10.40;;
75246;SDS011;63844;50.042;19.224;2023-09-12T00:19:20;13.30;;;10.60;;
75246;SDS011;63844;50.042;19.224;2023-09-12T00:21:00;15.20;;;10.40;;
75246;SDS011;63844;50.042;19.224;2023-09-12T00:22:44;15.80;;;10.50;;
75246;SDS011;63844;50.042;19.224;2023-09-12T00:24:20;13.40;;;10.60;;
75246;SDS011;63844;50.042;19.224;2023-09-12T00:25:56;13.90;;;11.10;;
75246;SDS011;63844;50.042;19.224;2023-09-12T00:27:32;16.50;;;10.70;;
75246;SDS011;63844;50.042;19.224;2023-09-12T00:29:10;16.00;;;11.80;;
75246;SDS011;63844;50.042;19.224;2023-09-12T00:31:55;13.40;;;10.70;;
75246;SDS011;63844;50.042;19.224;2023-09-12T00:36:16;13.10;;;10.00;;
75246;SDS011;63844;50.042;19.224;2023-09-12T00:37:52;16.10;;;10.60;;
75246;SDS011;63844;50.042;19.224;2023-09-12T00:39:28;14.50;;;10.40;;
75246;SDS011;63844;50.042;19.224;2023-09-12T00:41:09;13.00;;;10.30;;
75246;SDS011;63844;50.042;19.224;2023-09-12T00:42:49;13.30;;;9.90;;
75246;SDS011;63844;50.042;19.224;2023-09-12T00:46:00;13.50;;;10.50;;
75246;SDS011;63844;50.042;19.224;2023-09-12T00:47:36;14.30;;;10.70;;
75246;SDS011;63844;50.042;19.224;2023-09-12T00:49:11;14.80;;;11.50;;
75246;SDS011;63844;50.042;19.224;2023-09-12T00:50:49;16.40;;;10.70;;
75246;SDS011;63844;50.042;19.224;2023-09-12T00:52:27;13.80;;;10.60;;
75246;SDS011;63844;50.042;19.224;2023-09-12T00:54:04;15.70;;;11.70;;
75246;SDS011;63844;50.042;19.224;2023-09-12T00:55:40;14.00;;;10.90;;
75246;SDS011;63844;50.042;19.224;2023-09-12T00:57:32;16.50;;;11.70;;
75246;SDS011;63844;50.042;19.224;2023-09-12T00:59:10;15.90;;;11.70;;
75246;SDS011;63844;50.042;19.224;2023-09-12T01:00:48;16.90;;;11.90;;
75246;SDS011;63844;50.042;19.224;2023-09-12T01:02:24;18.20;;;12.60;;
75246;SDS011;63844;50.042;19.224;2023-09-12T01:04:00;17.90;;;13.00;;
75246;SDS011;63844;50.042;19.224;2023-09-12T01:05:39;17.20;;;11.60;;
75246;SDS011;63844;50.042;19.224;2023-09-12T01:07:18;19.60;;;11.50;;
75246;SDS011;63844;50.042;19.224;2023-09-12T01:08:53;15.30;;;11.80;;
75246;SDS011;63844;50.042;19.224;2023-09-12T01:10:30;18.80;;;12.20;;
75246;SDS011;63844;50.042;19.224;2023-09-12T01:12:06;15.20;;;12.00;;
75246;SDS011;63844;50.042;19.224;2023-09-12T01:13:43;17.40;;;12.30;;
75246;SDS011;63844;50.042;19.224;2023-09-12T01:15:18;20.40;;;13.50;;
75246;SDS011;63844;50.042;19.224;2023-09-12T01:18:30;14.80;;;11.40;;
75246;SDS011;63844;50.042;19.224;2023-09-12T01:20:14;17.60;;;12.50;;
75246;SDS011;63844;50.042;19.224;2023-09-12T01:22:15;17.50;;;12.40;;
75246;SDS011;63844;50.042;19.224;2023-09-12T01:27:30;17.10;;;11.30;;
75246;SDS011;63844;50.042;19.224;2023-09-12T01:28:47;17.10;;;11.80;;
75246;SDS011;63844;50.042;19.224;2023-09-12T01:30:33;17.60;;;11.50;;
75246;SDS011;63844;50.042;19.224;2023-09-12T01:32:12;16.10;;;11.60;;
75246;SDS011;63844;50.042;19.224;2023-09-12T01:33:49;16.90;;;11.80;;
75246;SDS011;63844;50.042;19.224;2023-09-12T01:35:30;16.70;;;12.60;;
75246;SDS011;63844;50.042;19.224;2023-09-12T01:37:07;15.30;;;11.40;;
75246;SDS011;63844;50.042;19.224;2023-09-12T01:38:44;15.10;;;12.20;;
75246;SDS011;63844;50.042;19.224;2023-09-12T01:40:22;16.10;;;12.20;;
75246;SDS011;63844;50.042;19.224;2023-09-12T01:42:08;18.60;;;12.60;;
75246;SDS011;63844;50.042;19.224;2023-09-12T01:43:47;17.40;;;12.10;;
75246;SDS011;63844;50.042;19.224;2023-09-12T01:45:26;14.00;;;11.30;;
75246;SDS011;63844;50.042;19.224;2023-09-12T01:47:03;17.10;;;11.70;;
75246;SDS011;63844;50.042;19.224;2023-09-12T01:48:41;14.90;;;10.90;;
75246;SDS011;63844;50.042;19.224;2023-09-12T01:50:18;16.30;;;12.10;;
75246;SDS011;63844;50.042;19.224;2023-09-12T01:51:56;17.70;;;11.70;;
75246;SDS011;63844;50.042;19.224;2023-09-12T01:53:34;19.20;;;12.30;;
75246;SDS011;63844;50.042;19.224;2023-09-12T01:55:11;18.50;;;11.80;;
75246;SDS011;63844;50.042;19.224;2023-09-12T01:56:47;15.80;;;12.40;;
75246;SDS011;63844;50.042;19.224;2023-09-12T01:58:24;16.30;;;12.20;;
75246;SDS011;63844;50.042;19.224;2023-09-12T02:00:02;14.60;;;11.80;;
75246;SDS011;63844;50.042;19.224;2023-09-12T02:01:38;16.00;;;12.60;;
75246;SDS011;63844;50.042;19.224;2023-09-12T02:03:13;18.80;;;12.20;;
75246;SDS011;63844;50.042;19.224;2023-09-12T02:06:56;15.20;;;11.40;;
75246;SDS011;63844;50.042;19.224;2023-09-12T02:08:33;16.80;;;11.90;;
75246;SDS011;63844;50.042;19.224;2023-09-12T02:10:08;15.70;;;11.90;;
75246;SDS011;63844;50.042;19.224;2023-09-12T02:11:45;16.70;;;12.10;;
75246;SDS011;63844;50.042;19.224;2023-09-12T02:13:21;16.90;;;12.20;;
75246;SDS011;63844;50.042;19.224;2023-09-12T02:14:57;20.60;;;12.20;;
75246;SDS011;63844;50.042;19.224;2023-09-12T02:16:35;17.60;;;12.90;;
75246;SDS011;63844;50.042;19.224;2023-09-12T02:18:13;17.10;;;12.40;;
75246;SDS011;63844;50.042;19.224;2023-09-12T02:19:48;15.80;;;12.40;;
75246;SDS011;63844;50.042;19.224;2023-09-12T02:21:24;16.50;;;12.60;;
75246;SDS011;63844;50.042;19.224;2023-09-12T02:23:10;18.20;;;12.60;;
75246;SDS011;63844;50.042;19.224;2023-09-12T02:24:48;18.90;;;13.10;;
75246;SDS011;63844;50.042;19.224;2023-09-12T02:26:24;20.20;;;13.20;;
75246;SDS011;63844;50.042;19.224;2023-09-12T02:28:02;19.70;;;13.00;;
75246;SDS011;63844;50.042;19.224;2023-09-12T02:29:42;18.90;;;12.60;;
75246;SDS011;63844;50.042;19.224;2023-09-12T02:31:18;17.10;;;13.00;;
75246;SDS011;63844;50.042;19.224;2023-09-12T02:32:53;19.00;;;13.10;;
75246;SDS011;63844;50.042;19.224;2023-09-12T02:34:29;16.20;;;12.40;;
75246;SDS011;63844;50.042;19.224;2023-09-12T02:36:05;16.70;;;12.90;;
75246;SDS011;63844;50.042;19.224;2023-09-12T02:37:41;17.20;;;12.80;;
75246;SDS011;63844;50.042;19.224;2023-09-12T02:40:54;19.80;;;13.00;;
75246;SDS011;63844;50.042;19.224;2023-09-12T02:42:32;17.80;;;12.80;;
75246;SDS011;63844;50.042;19.224;2023-09-12T02:44:08;16.50;;;11.70;;
75246;SDS011;63844;50.042;19.224;2023-09-12T02:45:44;16.50;;;13.00;;
75246;SDS011;63844;50.042;19.224;2023-09-12T02:47:20;19.60;;;13.20;;
75246;SDS011;63844;50.042;19.224;2023-09-12T02:48:56;17.60;;;13.10;;
75246;SDS011;63844;50.042;19.224;2023-09-12T02:50:31;17.20;;;12.70;;
75246;SDS011;63844;50.042;19.224;2023-09-12T02:52:08;18.10;;;13.40;;
75246;SDS011;63844;50.042;19.224;2023-09-12T02:53:46;19.60;;;13.00;;
75246;SDS011;63844;50.042;19.224;2023-09-12T02:55:22;17.30;;;13.80;;
75246;SDS011;63844;50.042;19.224;2023-09-12T02:56:57;17.30;;;13.10;;
75246;SDS011;63844;50.042;19.224;2023-09-12T02:58:36;20.90;;;13.50;;
75246;SDS011;63844;50.042;19.224;2023-09-12T03:00:45;17.20;;;12.70;;
75246;SDS011;63844;50.042;19.224;2023-09-12T03:02:25;17.00;;;12.40;;
75246;SDS011;63844;50.042;19.224;2023-09-12T03:04:00;19.60;;;13.30;;
75246;SDS011;63844;50.042;19.224;2023-09-12T03:05:40;19.30;;;14.60;;
75246;SDS011;63844;50.042;19.224;2023-09-12T03:07:16;19.50;;;13.90;;
75246;SDS011;63844;50.042;19.224;2023-09-12T03:08:51;20.40;;;13.90;;
75246;SDS011;63844;50.042;19.224;2023-09-12T03:10:26;20.10;;;14.20;;
75246;SDS011;63844;50.042;19.224;2023-09-12T03:12:04;18.90;;;14.50;;
75246;SDS011;63844;50.042;19.224;2023-09-12T03:13:41;20.30;;;14.50;;
75246;SDS011;63844;50.042;19.224;2023-09-12T03:15:17;22.90;;;15.10;;
75246;SDS011;63844;50.042;19.224;2023-09-12T03:18:30;20.00;;;13.70;;
75246;SDS011;63844;50.042;19.224;2023-09-12T03:20:06;22.00;;;14.50;;
75246;SDS011;63844;50.042;19.224;2023-09-12T03:21:44;21.90;;;15.00;;
75246;SDS011;63844;50.042;19.224;2023-09-12T03:23:19;23.10;;;14.70;;
75246;SDS011;63844;50.042;19.224;2023-09-12T03:24:55;19.50;;;13.70;;
75246;SDS011;63844;50.042;19.224;2023-09-12T03:26:33;21.10;;;14.70;;
75246;SDS011;63844;50.042;19.224;2023-09-12T03:28:09;19.20;;;13.50;;
75246;SDS011;63844;50.042;19.224;2023-09-12T03:29:48;22.10;;;14.50;;
75246;SDS011;63844;50.042;19.224;2023-09-12T03:31:23;18.00;;;13.20;;
75246;SDS011;63844;50.042;19.224;2023-09-12T03:33:00;22.80;;;13.90;;
75246;SDS011;63844;50.042;19.224;2023-09-12T03:34:36;19.30;;;14.60;;
75246;SDS011;63844;50.042;19.224;2023-09-12T03:36:11;22.70;;;15.00;;
75246;SDS011;63844;50.042;19.224;2023-09-12T03:37:48;26.20;;;15.20;;
75246;SDS011;63844;50.042;19.224;2023-09-12T03:39:23;22.60;;;14.70;;
75246;SDS011;63844;50.042;19.224;2023-09-12T03:40:59;23.50;;;15.10;;
75246;SDS011;63844;50.042;19.224;2023-09-12T03:42:35;21.10;;;14.10;;
75246;SDS011;63844;50.042;19.224;2023-09-12T03:45:47;21.20;;;14.00;;
75246;SDS011;63844;50.042;19.224;2023-09-12T03:47:24;21.80;;;14.70;;
75246;SDS011;63844;50.042;19.224;2023-09-12T03:49:00;22.40;;;13.50;;
75246;SDS011;63844;50.042;19.224;2023-09-12T03:50:35;26.60;;;14.30;;
75246;SDS011;63844;50.042;19.224;2023-09-12T03:52:11;22.40;;;14.40;;
75246;SDS011;63844;50.042;19.224;2023-09-12T03:53:47;21.10;;;14.60;;
75246;SDS011;63844;50.042;19.224;2023-09-12T03:55:25;19.00;;;13.50;;
75246;SDS011;63844;50.042;19.224;2023-09-12T03:57:00;19.40;;;14.40;;
75246;SDS011;63844;50.042;19.224;2023-09-12T03:58:36;20.30;;;13.90;;
75246;SDS011;63844;50.042;19.224;2023-09-12T04:00:11;20.70;;;13.90;;
75246;SDS011;63844;50.042;19.224;2023-09-12T04:01:48;20.60;;;14.20;;
75246;SDS011;63844;50.042;19.224;2023-09-12T04:03:24;19.00;;;13.80;;
75246;SDS011;63844;50.042;19.224;2023-09-12T04:05:00;18.10;;;12.90;;
75246;SDS011;63844;50.042;19.224;2023-09-12T04:06:35;19.90;;;14.20;;
75246;SDS011;63844;50.042;19.224;2023-09-12T04:08:11;18.40;;;12.70;;
75246;SDS011;63844;50.042;19.224;2023-09-12T04:09:46;19.30;;;13.10;;
75246;SDS011;63844;50.042;19.224;2023-09-12T04:11:22;16.90;;;12.80;;
75246;SDS011;63844;50.042;19.224;2023-09-12T04:12:57;19.20;;;13.50;;
75246;SDS011;63844;50.042;19.224;2023-09-12T04:14:33;19.60;;;12.50;;
75246;SDS011;63844;50.042;19.224;2023-09-12T04:16:08;17.90;;;12.50;;
75246;SDS011;63844;50.042;19.224;2023-09-12T04:17:43;18.40;;;13.40;;
75246;SDS011;63844;50.042;19.224;2023-09-12T04:19:19;19.40;;;13.20;;
75246;SDS011;63844;50.042;19.224;2023-09-12T04:20:54;19.30;;;14.30;;
75246;SDS011;63844;50.042;19.224;2023-09-12T04:22:33;19.40;;;13.60;;
75246;SDS011;63844;50.042;19.224;2023-09-12T04:24:08;19.30;;;13.20;;
75246;SDS011;63844;50.042;19.224;2023-09-12T04:25:45;20.30;;;13.90;;
75246;SDS011;63844;50.042;19.224;2023-09-12T04:27:22;19.40;;;14.10;;
75246;SDS011;63844;50.042;19.224;2023-09-12T04:28:57;20.00;;;13.70;;
75246;SDS011;63844;50.042;19.224;2023-09-12T04:30:33;20.80;;;13.90;;
75246;SDS011;63844;50.042;19.224;2023-09-12T04:32:10;18.60;;;13.60;;
75246;SDS011;63844;50.042;19.224;2023-09-12T04:33:45;17.20;;;13.50;;
75246;SDS011;63844;50.042;19.224;2023-09-12T04:35:21;18.30;;;13.40;;
75246;SDS011;63844;50.042;19.224;2023-09-12T04:36:57;19.20;;;13.20;;
75246;SDS011;63844;50.042;19.224;2023-09-12T04:38:33;20.00;;;13.90;;
75246;SDS011;63844;50.042;19.224;2023-09-12T04:40:08;21.60;;;12.90;;
75246;SDS011;63844;50.042;19.224;2023-09-12T04:41:44;18.80;;;13.40;;
75246;SDS011;63844;50.042;19.224;2023-09-12T04:43:19;19.60;;;13.00;;
75246;SDS011;63844;50.042;19.224;2023-09-12T04:44:54;18.20;;;13.90;;
75246;SDS011;63844;50.042;19.224;2023-09-12T04:46:30;17.60;;;14.00;;
75246;SDS011;63844;50.042;19.224;2023-09-12T04:48:06;18.90;;;13.80;;
75246;SDS011;63844;50.042;19.224;2023-09-12T04:49:43;19.20;;;14.30;;
75246;SDS011;63844;50.042;19.224;2023-09-12T04:51:20;22.90;;;14.80;;
75246;SDS011;63844;50.042;19.224;2023-09-12T04:52:55;20.20;;;13.60;;
75246;SDS011;63844;50.042;19.224;2023-09-12T04:54:31;20.10;;;13.90;;
75246;SDS011;63844;50.042;19.224;2023-09-12T04:56:06;20.30;;;15.20;;
75246;SDS011;63844;50.042;19.224;2023-09-12T04:57:44;20.10;;;14.60;;
75246;SDS011;63844;50.042;19.224;2023-09-12T04:59:55;19.60;;;13.60;;
75246;SDS011;63844;50.042;19.224;2023-09-12T05:01:45;20.10;;;14.00;;
75246;SDS011;63844;50.042;19.224;2023-09-12T05:03:32;17.30;;;13.20;;
75246;SDS011;63844;50.042;19.224;2023-09-12T05:05:34;16.50;;;12.90;;
75246;SDS011;63844;50.042;19.224;2023-09-12T05:07:36;19.40;;;14.10;;
75246;SDS011;63844;50.042;19.224;2023-09-12T05:09:15;18.40;;;14.40;;
75246;SDS011;63844;50.042;19.224;2023-09-12T05:10:59;19.70;;;13.50;;
75246;SDS011;63844;50.042;19.224;2023-09-12T05:12:51;21.00;;;13.90;;
75246;SDS011;63844;50.042;19.224;2023-09-12T05:14:40;19.40;;;14.50;;
75246;SDS011;63844;50.042;19.224;2023-09-12T05:16:59;18.40;;;13.20;;
75246;SDS011;63844;50.042;19.224;2023-09-12T05:19:04;17.60;;;13.00;;
75246;SDS011;63844;50.042;19.224;2023-09-12T05:20:46;16.40;;;13.20;;
75246;SDS011;63844;50.042;19.224;2023-09-12T07:49:18;12.80;;;11.40;;
75246;SDS011;63844;50.042;19.224;2023-09-12T07:51:10;14.00;;;12.50;;
75246;SDS011;63844;50.042;19.224;2023-09-12T07:52:48;14.70;;;10.70;;
75246;SDS011;63844;50.042;19.224;2023-09-12T07:54:26;11.50;;;10.30;;
75246;SDS011;63844;50.042;19.224;2023-09-12T07:56:04;12.80;;;10.40;;
75246;SDS011;63844;50.042;19.224;2023-09-12T07:57:41;19.20;;;12.20;;
75246;SDS011;63844;50.042;19.224;2023-09-12T07:59:20;14.40;;;13.00;;
75246;SDS011;63844;50.042;19.224;2023-09-12T08:00:56;12.90;;;11.10;;
75246;SDS011;63844;50.042;19.224;2023-09-12T08:02:33;14.90;;;13.50;;
75246;SDS011;63844;50.042;19.224;2023-09-12T08:04:09;13.00;;;11.80;;
75246;SDS011;63844;50.042;19.224;2023-09-12T08:05:55;14.40;;;13.00;;
75246;SDS011;63844;50.042;19.224;2023-09-12T08:07:34;17.40;;;15.60;;
75246;SDS011;63844;50.042;19.224;2023-09-12T08:09:11;15.90;;;14.50;;
75246;SDS011;63844;50.042;19.224;2023-09-12T08:10:47;16.20;;;14.80;;
75246;SDS011;63844;50.042;19.224;2023-09-12T08:12:25;15.40;;;14.10;;
75246;SDS011;63844;50.042;19.224;2023-09-12T08:14:03;18.70;;;17.10;;
75246;SDS011;63844;50.042;19.224;2023-09-12T08:15:40;19.80;;;18.40;;
75246;SDS011;63844;50.042;19.224;2023-09-12T08:17:17;15.50;;;14.30;;
75246;SDS011;63844;50.042;19.224;2023-09-12T08:18:54;18.80;;;17.10;;
75246;SDS011;63844;50.042;19.224;2023-09-12T08:20:31;25.40;;;23.50;;
75246;SDS011;63844;50.042;19.224;2023-09-12T08:22:08;21.30;;;19.40;;
75246;SDS011;63844;50.042;19.224;2023-09-12T08:23:45;23.90;;;22.10;;
75246;SDS011;63844;50.042;19.224;2023-09-12T08:25:27;25.30;;;23.60;;
75246;SDS011;63844;50.042;19.224;2023-09-12T08:27:04;23.90;;;21.80;;
75246;SDS011;63844;50.042;19.224;2023-09-12T08:28:41;28.60;;;26.40;;
75246;SDS011;63844;50.042;19.224;2023-09-12T08:30:20;32.40;;;30.20;;
75246;SDS011;63844;50.042;19.224;2023-09-12T08:31:58;24.10;;;22.40;;
75246;SDS011;63844;50.042;19.224;2023-09-12T08:33:35;30.10;;;28.00;;
75246;SDS011;63844;50.042;19.224;2023-09-12T08:35:14;31.90;;;29.90;;
75246;SDS011;63844;50.042;19.224;2023-09-12T08:36:51;31.20;;;29.40;;
75246;SDS011;63844;50.042;19.224;2023-09-12T08:38:27;23.60;;;21.90;;
75246;SDS011;63844;50.042;19.224;2023-09-12T08:40:04;25.80;;;24.20;;
75246;SDS011;63844;50.042;19.224;2023-09-12T08:41:43;38.70;;;36.50;;
75246;SDS011;63844;50.042;19.224;2023-09-12T08:43:29;32.40;;;30.40;;
75246;SDS011;63844;50.042;19.224;2023-09-12T08:45:11;26.30;;;24.50;;
75246;SDS011;63844;50.042;19.224;2023-09-12T08:47:04;38.70;;;36.40;;
75246;SDS011;63844;50.042;19.224;2023-09-12T08:48:41;34.90;;;32.80;;
75246;SDS011;63844;50.042;19.224;2023-09-12T08:50:21;28.70;;;26.60;;
75246;SDS011;63844;50.042;19.224;2023-09-12T08:52:01;31.30;;;29.50;;
75246;SDS011;63844;50.042;19.224;2023-09-12T08:53:47;31.60;;;29.60;;
75246;SDS011;63844;50.042;19.224;2023-09-12T08:55:25;34.90;;;32.60;;
75246;SDS011;63844;50.042;19.224;2023-09-12T08:57:13;34.10;;;31.90;;
75246;SDS011;63844;50.042;19.224;2023-09-12T08:59:00;30.10;;;28.20;;
75246;SDS011;63844;50.042;19.224;2023-09-12T09:00:39;29.20;;;27.10;;
75246;SDS011;63844;50.042;19.224;2023-09-12T09:04:38;27.40;;;25.70;;
75246;SDS011;63844;50.042;19.224;2023-09-12T09:07:15;29.50;;;27.60;;
75246;SDS011;63844;50.042;19.224;2023-09-12T09:11:00;22.70;;;21.30;;
75246;SDS011;63844;50.042;19.224;2023-09-12T09:12:39;30.30;;;28.30;;
75246;SDS011;63844;50.042;19.224;2023-09-12T09:14:16;18.00;;;16.80;;
75246;SDS011;63844;50.042;19.224;2023-09-12T09:16:09;24.80;;;23.20;;
75246;SDS011;63844;50.042;19.224;2023-09-12T09:18:05;22.10;;;20.60;;
75246;SDS011;63844;50.042;19.224;2023-09-12T09:19:41;25.80;;;24.10;;
75246;SDS011;63844;50.042;19.224;2023-09-12T09:21:22;24.10;;;22.40;;
75246;SDS011;63844;50.042;19.224;2023-09-12T09:23:04;19.60;;;18.10;;
75246;SDS011;63844;50.042;19.224;2023-09-12T09:24:42;19.80;;;18.30;;
75246;SDS011;63844;50.042;19.224;2023-09-12T09:26:19;19.60;;;18.20;;
75246;SDS011;63844;50.042;19.224;2023-09-12T09:27:56;19.80;;;18.20;;
75246;SDS011;63844;50.042;19.224;2023-09-12T09:29:45;19.10;;;17.60;;
75246;SDS011;63844;50.042;19.224;2023-09-12T09:31:22;17.40;;;15.90;;
75246;SDS011;63844;50.042;19.224;2023-09-12T09:32:59;18.30;;;16.80;;
75246;SDS011;63844;50.042;19.224;2023-09-12T09:34:39;16.10;;;14.80;;
75246;SDS011;63844;50.042;19.224;2023-09-12T09:36:18;16.20;;;14.70;;
75246;SDS011;63844;50.042;19.224;2023-09-12T09:37:56;14.40;;;13.50;;
75246;SDS011;63844;50.042;19.224;2023-09-12T09:39:33;13.80;;;12.70;;
75246;SDS011;63844;50.042;19.224;2023-09-12T09:41:11;13.70;;;12.30;;
75246;SDS011;63844;50.042;19.224;2023-09-12T09:42:52;13.40;;;12.40;;
75246;SDS011;63844;50.042;19.224;2023-09-12T09:44:30;13.90;;;12.70;;
75246;SDS011;63844;50.042;19.224;2023-09-12T09:46:06;14.90;;;13.70;;
75246;SDS011;63844;50.042;19.224;2023-09-12T09:47:43;13.80;;;12.60;;
75246;SDS011;63844;50.042;19.224;2023-09-12T09:49:21;13.10;;;11.70;;
75246;SDS011;63844;50.042;19.224;2023-09-12T09:51:04;14.50;;;13.30;;
75246;SDS011;63844;50.042;19.224;2023-09-12T09:52:42;12.20;;;11.30;;
75246;SDS011;63844;50.042;19.224;2023-09-12T09:54:19;13.90;;;12.60;;
75246;SDS011;63844;50.042;19.224;2023-09-12T09:56:14;13.30;;;12.30;;
75246;SDS011;63844;50.042;19.224;2023-09-12T09:57:51;13.30;;;12.00;;
75246;SDS011;63844;50.042;19.224;2023-09-12T09:59:29;11.80;;;10.10;;
75246;SDS011;63844;50.042;19.224;2023-09-12T10:01:07;14.10;;;12.90;;
75246;SDS011;63844;50.042;19.224;2023-09-12T10:02:47;12.50;;;11.30;;
75246;SDS011;63844;50.042;19.224;2023-09-12T10:04:27;12.00;;;11.00;;
75246;SDS011;63844;50.042;19.224;2023-09-12T10:06:05;13.20;;;12.10;;
75246;SDS011;63844;50.042;19.224;2023-09-12T10:07:42;12.00;;;11.00;;
75246;SDS011;63844;50.042;19.224;2023-09-12T10:09:27;12.40;;;10.50;;
75246;SDS011;63844;50.042;19.224;2023-09-12T10:11:06;12.20;;;10.60;;
75246;SDS011;63844;50.042;19.224;2023-09-12T10:12:50;11.60;;;10.30;;
75246;SDS011;63844;50.042;19.224;2023-09-12T10:14:29;12.70;;;11.60;;
75246;SDS011;63844;50.042;19.224;2023-09-12T10:16:07;12.60;;;9.70;;
75246;SDS011;63844;50.042;19.224;2023-09-12T10:17:46;11.90;;;10.90;;
75246;SDS011;63844;50.042;19.224;2023-09-12T10:19:32;11.20;;;10.10;;
75246;SDS011;63844;50.042;19.224;2023-09-12T10:21:15;12.00;;;10.90;;
75246;SDS011;63844;50.042;19.224;2023-09-12T10:23:07;11.50;;;10.40;;
75246;SDS011;63844;50.042;19.224;2023-09-12T10:24:48;12.70;;;11.60;;
75246;SDS011;63844;50.042;19.224;2023-09-12T10:26:53;12.90;;;11.60;;
75246;SDS011;63844;50.042;19.224;2023-09-12T10:28:32;12.90;;;11.10;;
75246;SDS011;63844;50.042;19.224;2023-09-12T10:33:57;11.60;;;10.60;;
75246;SDS011;63844;50.042;19.224;2023-09-12T10:42:26;11.30;;;10.40;;
75246;SDS011;63844;50.042;19.224;2023-09-12T10:44:06;11.30;;;10.20;;
75246;SDS011;63844;50.042;19.224;2023-09-12T10:45:44;11.50;;;10.40;;
75246;SDS011;63844;50.042;19.224;2023-09-12T10:47:24;10.60;;;9.70;;
75246;SDS011;63844;50.042;19.224;2023-09-12T10:51:21;12.50;;;11.50;;
75246;SDS011;63844;50.042;19.224;2023-09-12T10:53:19;11.20;;;10.10;;
75246;SDS011;63844;50.042;19.224;2023-09-12T10:55:03;12.70;;;11.70;;
75246;SDS011;63844;50.042;19.224;2023-09-12T10:56:39;12.10;;;10.90;;
75246;SDS011;63844;50.042;19.224;2023-09-12T10:58:15;11.60;;;10.70;;
75246;SDS011;63844;50.042;19.224;2023-09-12T11:01:47;14.20;;;13.00;;
75246;SDS011;63844;50.042;19.224;2023-09-12T11:05:05;11.20;;;10.30;;
75246;SDS011;63844;50.042;19.224;2023-09-12T11:06:42;12.20;;;11.20;;
75246;SDS011;63844;50.042;19.224;2023-09-12T11:08:27;11.10;;;10.20;;
75246;SDS011;63844;50.042;19.224;2023-09-12T11:10:17;12.30;;;11.00;;
75246;SDS011;63844;50.042;19.224;2023-09-12T11:12:34;11.90;;;10.90;;
75246;SDS011;63844;50.042;19.224;2023-09-12T11:14:14;11.00;;;10.00;;
75246;SDS011;63844;50.042;19.224;2023-09-12T11:18:03;10.80;;;9.70;;
75246;SDS011;63844;50.042;19.224;2023-09-12T11:19:48;11.20;;;10.30;;
75246;SDS011;63844;50.042;19.224;2023-09-12T11:21:38;11.20;;;10.00;;
75246;SDS011;63844;50.042;19.224;2023-09-12T11:23:15;10.20;;;9.20;;
75246;SDS011;63844;50.042;19.224;2023-09-12T11:24:51;9.30;;;8.40;;
75246;SDS011;63844;50.042;19.224;2023-09-12T11:26:28;11.00;;;9.70;;
75246;SDS011;63844;50.042;19.224;2023-09-12T11:28:07;11.40;;;10.30;;
75246;SDS011;63844;50.042;19.224;2023-09-12T11:29:46;11.30;;;9.50;;
75246;SDS011;63844;50.042;19.224;2023-09-12T11:34:27;11.10;;;10.10;;
75246;SDS011;63844;50.042;19.224;2023-09-12T11:36:03;9.80;;;8.90;;
75246;SDS011;63844;50.042;19.224;2023-09-12T11:37:51;10.40;;;9.40;;
75246;SDS011;63844;50.042;19.224;2023-09-12T11:39:32;11.50;;;9.40;;
